Time;durP1;ratioP1;P1;durP2;ratioP2;P2;SDS_P1;SDS_P2;PMS_P1;PMS_P2;Temp;Humidity;BMP_temperature;BMP_pressure;BME280_temperature;BME280_humidity;BME280_pressure;Samples;Min_cycle;Max_cycle;Signal;HPM_P1;HPM_P2
2021/03/30 00:01:56;;;;;;;1.42;1.33;;;;;;;17.76;36.24;97483.44;5088289;28;20058;-57
2021/03/30 00:04:22;;;;;;;1.60;1.42;;;;;;;17.75;36.01;97479.88;5087957;28;20113;-58
2021/03/30 00:06:48;;;;;;;1.85;1.70;;;;;;;17.74;36.22;97485.56;5088750;28;20082;-57
2021/03/30 00:09:13;;;;;;;1.77;1.67;;;;;;;17.74;36.35;97482.84;5087969;28;20064;-57
2021/03/30 00:11:39;;;;;;;1.60;1.50;;;;;;;17.73;36.00;97484.72;5067630;28;20423;-58
2021/03/30 00:14:04;;;;;;;3.05;1.60;;;;;;;17.71;36.12;97478.72;5067066;28;20137;-57
2021/03/30 00:16:30;;;;;;;1.70;1.60;;;;;;;17.72;36.16;97480.38;5068405;28;20086;-58
2021/03/30 00:18:56;;;;;;;1.85;1.55;;;;;;;17.70;36.08;97479.78;5067084;28;20048;-58
2021/03/30 00:21:22;;;;;;;1.65;1.58;;;;;;;17.69;36.20;97482.72;5068184;28;20137;-58
2021/03/30 00:23:47;;;;;;;1.58;1.48;;;;;;;17.68;36.08;97475.69;5067950;28;20389;-57
2021/03/30 00:26:13;;;;;;;1.52;1.42;;;;;;;17.67;36.13;97482.16;5067844;28;20058;-57
2021/03/30 00:28:38;;;;;;;2.25;2.05;;;;;;;17.65;35.89;97481.56;5067195;28;20411;-57
2021/03/30 00:31:04;;;;;;;1.75;1.65;;;;;;;17.64;35.96;97475.31;5067569;28;20125;-57
2021/03/30 00:33:29;;;;;;;1.80;1.70;;;;;;;17.61;35.92;97475.78;5067840;28;20083;-58
2021/03/30 00:35:55;;;;;;;1.98;1.65;;;;;;;17.63;36.15;97468.25;5066439;28;20076;-57
2021/03/30 00:38:21;;;;;;;1.80;1.70;;;;;;;17.61;36.06;97470.38;5068337;28;20059;-57
2021/03/30 00:40:47;;;;;;;1.50;1.40;;;;;;;17.59;35.90;97467.06;5068301;28;20051;-57
2021/03/30 00:43:12;;;;;;;1.80;1.50;;;;;;;17.58;36.08;97465.44;5067690;28;20147;-57
2021/03/30 00:45:38;;;;;;;1.75;1.65;;;;;;;17.57;36.12;97471.94;5067466;28;20526;-57
2021/03/30 00:48:04;;;;;;;1.60;1.50;;;;;;;17.57;36.03;97466.50;5066946;28;20095;-57
2021/03/30 00:50:32;;;;;;;2.30;1.63;;;;;;;17.56;35.84;97476.50;5066172;28;20063;-58
2021/03/30 00:52:57;;;;;;;1.90;1.55;;;;;;;17.53;35.87;97470.75;5051521;28;20051;-58
2021/03/30 00:55:23;;;;;;;1.75;1.65;;;;;;;17.52;36.05;97471.81;5079209;28;20470;-58
2021/03/30 00:57:49;;;;;;;2.72;1.67;;;;;;;17.50;35.88;97472.03;5066602;28;20056;-57
2021/03/30 01:00:15;;;;;;;2.75;1.90;;;;;;;17.51;36.21;97472.88;5049508;28;20090;-57
2021/03/30 01:02:41;;;;;;;2.05;1.80;;;;;;;17.49;35.88;97464.97;5065350;28;20741;-57
2021/03/30 01:05:08;;;;;;;3.15;1.92;;;;;;;17.48;36.05;97476.03;5068077;28;20131;-57
2021/03/30 01:07:34;;;;;;;2.33;1.77;;;;;;;17.46;36.13;97470.84;5066893;28;20057;-57
2021/03/30 01:10:21;;;;;;;3.17;1.98;;;;;;;17.43;36.22;97468.63;5065377;28;20051;-57
2021/03/30 01:13:15;;;;;;;3.03;1.70;;;;;;;17.45;36.06;97468.41;5067083;28;20427;-57
2021/03/30 01:16:01;;;;;;;3.08;1.77;;;;;;;17.43;36.13;97472.16;5050481;28;20242;-57
2021/03/30 01:18:36;;;;;;;1.95;1.60;;;;;;;17.41;36.07;97471.56;5064768;28;20555;-57
2021/03/30 01:21:05;;;;;;;1.83;1.65;;;;;;;17.43;35.85;97466.75;5048348;28;20498;-57
2021/03/30 01:23:44;;;;;;;3.25;1.98;;;;;;;17.41;36.07;97463.44;5067054;28;20064;-57
2021/03/30 01:26:25;;;;;;;1.70;1.60;;;;;;;17.39;36.25;97462.03;5081557;28;20558;-57
2021/03/30 01:28:59;;;;;;;1.95;1.75;;;;;;;17.39;35.96;97457.44;5067066;28;20048;-57
2021/03/30 01:31:25;;;;;;;3.03;1.65;;;;;;;17.38;35.97;97454.97;5066668;28;20049;-57
2021/03/30 01:33:52;;;;;;;2.22;1.70;;;;;;;17.39;36.12;97453.91;5049049;28;20044;-58
2021/03/30 01:36:19;;;;;;;2.17;2.08;;;;;;;17.37;36.29;97454.16;5049440;28;20106;-57
2021/03/30 01:38:44;;;;;;;1.90;1.80;;;;;;;17.35;36.15;97448.13;5048533;28;20540;-57
2021/03/30 01:41:10;;;;;;;1.73;1.58;;;;;;;17.33;36.32;97452.97;5065640;28;20135;-57
2021/03/30 01:43:35;;;;;;;2.25;2.05;;;;;;;17.35;35.97;97450.84;5048451;28;20056;-57
2021/03/30 01:46:01;;;;;;;2.35;2.17;;;;;;;17.34;36.05;97448.38;5065236;28;20040;-57
2021/03/30 01:48:27;;;;;;;2.10;2.00;;;;;;;17.33;36.21;97444.84;5065055;28;20131;-58
2021/03/30 01:50:52;;;;;;;1.92;1.63;;;;;;;17.33;36.01;97450.25;5048239;28;20072;-58
2021/03/30 01:53:19;;;;;;;1.95;1.80;;;;;;;17.31;35.96;97438.84;5054649;28;20438;-57
2021/03/30 01:55:45;;;;;;;2.92;1.90;;;;;;;17.32;36.04;97443.22;5085437;28;20051;-57
2021/03/30 01:58:14;;;;;;;1.63;1.52;;;;;;;17.29;35.94;97440.16;5065518;28;20284;-57
2021/03/30 02:00:39;;;;;;;2.00;1.90;;;;;;;17.27;35.86;97439.56;5085173;28;20130;-57
2021/03/30 02:03:08;;;;;;;2.22;1.77;;;;;;;17.27;35.97;97442.25;5085055;28;20894;-57
2021/03/30 02:05:34;;;;;;;1.92;1.83;;;;;;;17.27;36.08;97436.84;5070518;28;20050;-57
2021/03/30 02:08:01;;;;;;;1.77;1.67;;;;;;;17.25;35.91;97430.84;5068224;28;20056;-58
2021/03/30 02:10:45;;;;;;;1.80;1.70;;;;;;;17.24;36.03;97427.31;5068224;28;20499;-57
2021/03/30 02:13:20;;;;;;;1.65;1.55;;;;;;;17.20;36.02;97420.72;5085189;28;20772;-58
2021/03/30 02:15:45;;;;;;;2.15;1.95;;;;;;;17.18;35.94;97423.66;5084462;28;20059;-57
2021/03/30 02:18:13;;;;;;;2.72;1.90;;;;;;;17.17;36.04;97421.19;5084990;28;20274;-57
2021/03/30 02:20:40;;;;;;;2.72;1.65;;;;;;;17.19;35.82;97419.06;5068171;28;20140;-57
2021/03/30 02:23:24;;;;;;;1.90;1.80;;;;;;;17.17;35.95;97418.47;5086118;28;20503;-57
2021/03/30 02:25:55;;;;;;;2.15;2.00;;;;;;;17.17;36.07;97418.47;5086256;28;20056;-57
2021/03/30 02:28:23;;;;;;;2.03;1.70;;;;;;;17.15;35.98;97416.03;5086828;28;20155;-57
2021/03/30 02:30:49;;;;;;;1.85;1.75;;;;;;;17.15;35.89;97412.47;5086120;28;20051;-57
2021/03/30 02:33:18;;;;;;;1.85;1.73;;;;;;;17.14;36.18;97414.38;5086027;28;20051;-58
2021/03/30 02:35:47;;;;;;;1.80;1.70;;;;;;;17.11;35.94;97414.00;5068259;28;20051;-57
2021/03/30 02:38:12;;;;;;;2.35;1.70;;;;;;;17.11;35.75;97408.59;5089121;28;20134;-57
2021/03/30 02:40:38;;;;;;;1.90;1.80;;;;;;;17.10;36.08;97409.66;5090022;28;20139;-57
2021/03/30 02:43:03;;;;;;;3.38;1.70;;;;;;;17.09;35.87;97410.72;5088398;28;20079;-57
2021/03/30 02:45:30;;;;;;;2.40;2.05;;;;;;;17.05;35.69;97404.97;5088264;28;20055;-57
2021/03/30 02:47:59;;;;;;;1.65;1.55;;;;;;;17.05;36.20;97404.97;5088823;28;20044;-58
2021/03/30 02:50:25;;;;;;;1.80;1.70;;;;;;;17.05;35.98;97406.84;5088284;28;20075;-58
2021/03/30 02:52:51;;;;;;;1.90;1.80;;;;;;;17.04;36.15;97399.78;5053850;28;20553;-57
2021/03/30 02:55:17;;;;;;;1.80;1.70;;;;;;;17.02;36.20;97402.72;5070703;28;20060;-57
2021/03/30 02:57:43;;;;;;;2.25;1.70;;;;;;;16.98;36.00;97396.97;5068246;28;20041;-57
2021/03/30 03:00:12;;;;;;;1.80;1.70;;;;;;;16.99;36.02;97403.19;5068093;28;20656;-57
2021/03/30 03:02:38;;;;;;;2.67;1.77;;;;;;;16.97;36.15;97399.91;5051067;28;20091;-57
2021/03/30 03:05:04;;;;;;;2.35;1.55;;;;;;;16.97;36.03;97398.00;5051837;28;20135;-57
2021/03/30 03:07:30;;;;;;;3.08;2.00;;;;;;;16.98;35.97;97393.41;5069883;28;20412;-57
2021/03/30 03:09:56;;;;;;;1.80;1.70;;;;;;;16.95;36.12;97396.59;5068113;28;20092;-58
2021/03/30 03:12:22;;;;;;;2.28;1.88;;;;;;;16.95;36.19;97397.44;5052124;28;20504;-58
2021/03/30 03:14:47;;;;;;;2.25;1.80;;;;;;;16.94;35.91;97397.66;5051861;28;20044;-57
2021/03/30 03:17:13;;;;;;;2.38;1.92;;;;;;;16.94;36.17;97405.78;5067363;28;20052;-57
2021/03/30 03:19:39;;;;;;;1.70;1.45;;;;;;;16.93;36.15;97409.56;5067422;28;20048;-57
2021/03/30 03:22:05;;;;;;;1.90;1.80;;;;;;;16.92;36.15;97402.47;5050948;28;20040;-57
2021/03/30 03:24:30;;;;;;;1.77;1.65;;;;;;;16.91;36.21;97404.38;5050993;28;20094;-58
2021/03/30 03:26:56;;;;;;;2.13;1.92;;;;;;;16.89;36.04;97406.47;5067587;28;20152;-58
2021/03/30 03:29:22;;;;;;;1.85;1.75;;;;;;;16.90;36.19;97410.00;5069444;28;20523;-58
2021/03/30 03:31:48;;;;;;;1.95;1.48;;;;;;;16.87;36.05;97405.88;5069530;28;20051;-57
2021/03/30 03:34:17;;;;;;;2.58;1.83;;;;;;;16.86;36.03;97404.25;5068690;28;20044;-57
2021/03/30 03:36:44;;;;;;;2.33;1.65;;;;;;;16.87;35.88;97405.06;5050873;28;20396;-57
2021/03/30 03:39:11;;;;;;;1.90;1.63;;;;;;;16.86;36.07;97411.53;5066968;28;20056;-57
2021/03/30 03:41:37;;;;;;;1.90;1.80;;;;;;;16.84;36.18;97411.78;5068561;28;20045;-57
2021/03/30 03:44:03;;;;;;;2.28;1.70;;;;;;;16.84;36.10;97413.66;5068986;28;20098;-57
2021/03/30 03:46:28;;;;;;;1.73;1.60;;;;;;;16.83;36.24;97404.72;5069128;28;20080;-57
2021/03/30 03:48:54;;;;;;;1.73;1.63;;;;;;;16.82;36.06;97405.78;5069454;28;20084;-57
2021/03/30 03:51:20;;;;;;;2.38;2.05;;;;;;;16.81;36.35;97401.41;5069168;28;20045;-57
2021/03/30 03:53:48;;;;;;;2.53;2.28;;;;;;;16.79;36.09;97403.50;5076788;28;20059;-57
2021/03/30 03:56:16;;;;;;;1.73;1.60;;;;;;;16.76;36.13;97401.28;5087067;28;20055;-57
2021/03/30 03:58:48;;;;;;;1.40;1.40;;;;;;;16.76;36.29;97398.56;5069936;28;20708;-57
2021/03/30 04:01:16;;;;;;;2.30;2.10;;;;;;;16.76;36.10;97401.28;5087413;28;20056;-57
2021/03/30 04:03:50;;;;;;;1.92;1.83;;;;;;;16.76;36.07;97402.09;5070570;28;20552;-57
2021/03/30 04:06:17;;;;;;;1.60;1.50;;;;;;;16.74;36.23;97403.38;5087868;28;20055;-57
2021/03/30 04:08:46;;;;;;;2.13;2.03;;;;;;;16.73;36.33;97399.88;5087493;28;20192;-57
2021/03/30 04:11:12;;;;;;;1.92;1.83;;;;;;;16.69;36.16;97397.84;5088783;28;20269;-57
2021/03/30 04:13:38;;;;;;;2.13;1.73;;;;;;;16.72;36.20;97402.81;5070360;28;20060;-56
2021/03/30 04:16:04;;;;;;;2.45;1.80;;;;;;;16.72;36.29;97397.38;5087003;28;20495;-56
2021/03/30 04:18:31;;;;;;;2.13;2.03;;;;;;;16.72;36.09;97400.09;5087013;28;20449;-57
2021/03/30 04:20:56;;;;;;;2.53;1.90;;;;;;;16.72;36.06;97402.81;5088036;28;20072;-57
2021/03/30 04:23:24;;;;;;;1.90;1.80;;;;;;;16.70;36.19;97405.72;5087994;28;20064;-58
2021/03/30 04:25:50;;;;;;;2.17;1.60;;;;;;;16.68;36.26;97398.91;5088855;28;20089;-57
2021/03/30 04:28:16;;;;;;;1.77;1.67;;;;;;;16.68;36.25;97396.22;5088357;28;20453;-57
2021/03/30 04:30:41;;;;;;;1.70;1.60;;;;;;;16.67;36.02;97400.81;5087911;28;20525;-57
2021/03/30 04:33:07;;;;;;;2.22;1.77;;;;;;;16.58;36.26;97386.78;5087624;28;20071;-57
2021/03/30 04:35:32;;;;;;;1.90;1.80;;;;;;;16.65;36.20;97393.94;5088188;28;20537;-57
2021/03/30 04:37:58;;;;;;;1.85;1.75;;;;;;;16.65;36.01;97396.66;5087570;28;20059;-57
2021/03/30 04:40:24;;;;;;;2.45;1.70;;;;;;;16.64;36.08;97403.13;5087523;28;20079;-57
2021/03/30 04:42:49;;;;;;;1.90;1.77;;;;;;;16.61;36.21;97397.13;5088756;28;20546;-57
2021/03/30 04:45:15;;;;;;;1.60;1.50;;;;;;;16.61;36.22;97401.72;5087459;28;20043;-57
2021/03/30 04:47:41;;;;;;;2.47;1.60;;;;;;;16.61;36.17;97399.03;5086144;28;20055;-57
2021/03/30 04:50:07;;;;;;;1.92;1.83;;;;;;;16.59;36.29;97401.13;5087198;28;20663;-57
2021/03/30 04:52:33;;;;;;;1.75;1.65;;;;;;;16.58;36.27;97397.59;5087977;28;20052;-57
2021/03/30 04:54:58;;;;;;;1.83;1.73;;;;;;;16.58;36.18;97397.59;5066302;28;20448;-58
2021/03/30 04:57:24;;;;;;;1.60;1.50;;;;;;;16.58;36.34;97396.78;5066752;28;20598;-57
2021/03/30 04:59:49;;;;;;;1.98;1.88;;;;;;;16.56;36.41;97399.69;5065883;28;20087;-57
2021/03/30 05:02:15;;;;;;;2.90;1.60;;;;;;;16.56;36.76;97407.00;5066389;28;20047;-57
2021/03/30 05:04:41;;;;;;;1.80;1.70;;;;;;;16.55;36.64;97398.06;5066844;28;20524;-57
2021/03/30 05:07:06;;;;;;;2.22;1.50;;;;;;;16.55;36.93;97403.47;5066838;28;20068;-57
2021/03/30 05:09:32;;;;;;;2.13;1.90;;;;;;;16.54;36.85;97407.22;5067845;28;20137;-57
2021/03/30 05:11:57;;;;;;;2.53;2.00;;;;;;;16.53;36.87;97410.19;5065262;28;20135;-57
2021/03/30 05:14:23;;;;;;;2.47;1.80;;;;;;;16.53;36.86;97415.59;5066259;28;20044;-57
2021/03/30 05:16:48;;;;;;;1.88;1.65;;;;;;;16.51;36.99;97412.28;5067746;28;20424;-57
2021/03/30 05:19:14;;;;;;;1.77;1.40;;;;;;;16.50;37.04;97414.19;5066389;28;20050;-57
2021/03/30 05:21:40;;;;;;;1.77;1.50;;;;;;;16.49;37.18;97409.81;5064819;28;20075;-57
2021/03/30 05:24:07;;;;;;;1.70;1.60;;;;;;;16.50;37.09;97413.34;5065992;28;20072;-57
2021/03/30 05:26:32;;;;;;;1.65;1.55;;;;;;;16.48;36.84;97419.00;5066046;28;20041;-57
2021/03/30 05:28:58;;;;;;;1.70;1.30;;;;;;;16.47;37.11;97422.75;5056419;28;20121;-58
2021/03/30 05:31:23;;;;;;;2.10;1.60;;;;;;;16.47;37.02;97422.75;5065845;28;20097;-58
2021/03/30 05:33:49;;;;;;;2.45;1.65;;;;;;;16.45;37.07;97422.16;5067005;28;20131;-57
2021/03/30 05:36:14;;;;;;;1.73;1.60;;;;;;;16.45;37.02;97422.16;5065847;28;20071;-57
2021/03/30 05:38:40;;;;;;;1.70;1.60;;;;;;;16.44;37.07;97422.38;5068719;28;20048;-57
2021/03/30 05:41:07;;;;;;;1.90;1.75;;;;;;;16.42;37.12;97422.63;5066604;28;20190;-57
2021/03/30 05:43:34;;;;;;;1.70;1.60;;;;;;;16.42;37.09;97426.16;5048054;28;20079;-57
2021/03/30 05:46:00;;;;;;;1.85;1.65;;;;;;;16.41;37.25;97435.28;5064682;28;20044;-57
2021/03/30 05:48:27;;;;;;;1.90;1.80;;;;;;;16.47;37.08;97435.44;5060432;28;20052;-58
2021/03/30 05:50:52;;;;;;;1.60;1.50;;;;;;;16.49;37.12;97441.44;5046147;28;20052;-59
2021/03/30 05:53:18;;;;;;;1.85;1.58;;;;;;;16.52;36.80;97443.69;5057785;28;20086;-57
2021/03/30 05:55:45;;;;;;;1.60;1.50;;;;;;;16.53;36.75;97438.03;5068149;28;20048;-57
2021/03/30 05:58:11;;;;;;;1.70;1.60;;;;;;;16.54;36.70;97442.38;5085854;28;20047;-57
2021/03/30 06:00:38;;;;;;;1.45;1.35;;;;;;;16.55;36.61;97446.75;5086227;28;20139;-57
2021/03/30 06:03:09;;;;;;;2.25;1.70;;;;;;;16.55;36.67;97441.34;5085719;28;20050;-57
2021/03/30 06:05:35;;;;;;;3.05;1.90;;;;;;;16.59;36.71;97447.13;5084435;28;20051;-57
2021/03/30 06:08:02;;;;;;;1.70;1.60;;;;;;;16.64;36.79;97449.13;5085711;28;20048;-57
2021/03/30 06:10:28;;;;;;;1.73;1.63;;;;;;;16.67;36.49;97448.66;5085017;28;20137;-57
2021/03/30 06:12:55;;;;;;;1.70;1.60;;;;;;;16.70;36.36;97453.59;5085271;28;20563;-57
2021/03/30 06:15:25;;;;;;;1.85;1.70;;;;;;;16.73;36.60;97458.53;5086938;28;20052;-57
2021/03/30 06:17:51;;;;;;;2.45;1.95;;;;;;;16.75;36.46;97459.97;5083476;28;20051;-57
2021/03/30 06:20:36;;;;;;;1.80;1.70;;;;;;;16.77;36.41;97457.03;5066606;28;20044;-57
2021/03/30 06:23:08;;;;;;;2.33;2.13;;;;;;;16.77;36.48;97457.88;5065597;28;20063;-57
2021/03/30 06:25:43;;;;;;;2.63;1.70;;;;;;;16.78;36.48;97462.19;5066809;28;20148;-57
2021/03/30 06:28:10;;;;;;;1.70;1.58;;;;;;;16.80;36.49;97451.16;5066625;28;20067;-57
2021/03/30 06:30:38;;;;;;;1.92;1.40;;;;;;;16.81;36.96;97452.81;5073306;28;20150;-57
2021/03/30 06:33:04;;;;;;;2.08;1.80;;;;;;;16.81;36.49;97447.41;5084731;28;20075;-57
2021/03/30 06:35:30;;;;;;;2.03;1.77;;;;;;;16.86;36.75;97455.66;5082094;28;20039;-57
2021/03/30 06:37:55;;;;;;;1.58;1.48;;;;;;;16.89;36.22;97460.59;5067657;28;20587;-57
2021/03/30 06:40:33;;;;;;;2.17;1.67;;;;;;;16.89;36.67;97446.25;5084185;28;20105;-57
2021/03/30 06:44:24;;;;;;;1.63;1.40;;;;;;;16.90;36.40;97442.47;5062539;28;20052;-56
2021/03/30 06:45:46;;;;;;;2.92;1.90;;;;;;;16.89;36.80;97447.06;5062921;28;20147;-56
2021/03/30 06:48:12;;;;;;;1.60;1.50;;;;;;;16.93;36.64;97442.03;5064438;28;20480;-57
2021/03/30 06:50:38;;;;;;;2.30;1.60;;;;;;;16.93;36.38;97440.13;5065493;28;20064;-56
2021/03/30 06:53:14;;;;;;;1.80;1.70;;;;;;;16.94;36.63;97444.50;5068689;28;20048;-57
2021/03/30 06:55:50;;;;;;;1.60;1.50;;;;;;;16.93;36.38;97442.84;5085424;28;20058;-56
2021/03/30 06:58:17;;;;;;;3.08;1.77;;;;;;;16.95;36.27;97448.84;5085597;28;20048;-55
2021/03/30 07:00:43;;;;;;;2.20;1.38;;;;;;;16.97;36.39;97451.31;5084584;28;20039;-56
2021/03/30 07:03:10;;;;;;;2.03;1.77;;;;;;;16.98;36.36;97442.13;5085489;28;20515;-57
2021/03/30 07:05:39;;;;;;;1.73;1.60;;;;;;;16.99;36.55;97447.31;5086014;28;20077;-56
2021/03/30 07:08:06;;;;;;;1.85;1.60;;;;;;;17.02;36.52;97446.03;5083981;28;20055;-56
2021/03/30 07:10:33;;;;;;;2.10;1.80;;;;;;;17.03;36.56;97442.28;5083566;28;20085;-56
2021/03/30 07:12:59;;;;;;;3.08;1.90;;;;;;;17.05;36.70;97440.16;5073938;28;20052;-56
2021/03/30 07:15:25;;;;;;;1.60;1.50;;;;;;;17.06;36.76;97439.06;5069443;28;20526;-56
2021/03/30 07:18:13;;;;;;;2.05;1.80;;;;;;;17.08;36.67;97434.25;5080003;28;20841;-56
2021/03/30 07:20:43;;;;;;;2.22;1.70;;;;;;;17.09;36.72;97441.34;5063712;28;20048;-56
2021/03/30 07:23:11;;;;;;;3.15;1.80;;;;;;;17.10;36.86;97434.03;5067600;28;20085;-56
2021/03/30 07:25:41;;;;;;;1.58;1.48;;;;;;;17.10;36.67;97431.31;5066642;28;20142;-56
2021/03/30 07:28:10;;;;;;;2.38;1.77;;;;;;;17.09;36.72;97435.91;5050536;28;20056;-57
2021/03/30 07:30:37;;;;;;;2.97;1.58;;;;;;;17.13;36.47;97445.22;5051221;28;20076;-56
2021/03/30 07:33:23;;;;;;;3.60;1.63;;;;;;;17.15;36.45;97436.84;5071106;28;20028;-57
2021/03/30 07:35:49;;;;;;;2.10;1.90;;;;;;;17.15;36.96;97439.53;5057562;28;20053;-57
2021/03/30 07:38:18;;;;;;;1.92;1.63;;;;;;;17.18;36.63;97444.50;5067312;28;20517;-57
2021/03/30 07:40:43;;;;;;;2.65;1.52;;;;;;;17.18;36.61;97439.91;5070356;28;20135;-57
2021/03/30 07:43:12;;;;;;;1.45;1.38;;;;;;;17.18;36.66;97433.69;5055959;28;20127;-57
2021/03/30 07:45:40;;;;;;;1.90;1.80;;;;;;;17.21;36.49;97444.03;5068859;28;20130;-57
2021/03/30 07:48:06;;;;;;;3.53;1.52;;;;;;;17.22;36.66;97445.69;5051241;28;20044;-57
2021/03/30 07:51:05;;;;;;;3.90;1.70;;;;;;;17.25;36.53;97445.19;5040078;28;20431;-56
2021/03/30 07:53:53;;;;;;;4.47;2.40;;;;;;;17.26;36.68;97446.84;5056526;28;20070;-57
2021/03/30 07:56:22;;;;;;;6.47;2.55;;;;;;;17.26;36.75;97446.03;5087927;28;20110;-57
2021/03/30 07:58:48;;;;;;;3.17;1.90;;;;;;;17.27;36.77;97443.06;5088451;28;20048;-57
2021/03/30 08:01:14;;;;;;;2.97;2.53;;;;;;;17.27;36.71;97444.97;5088104;28;20055;-57
2021/03/30 08:03:41;;;;;;;3.20;2.00;;;;;;;17.27;36.37;97440.38;5088189;28;20078;-57
2021/03/30 08:06:22;;;;;;;4.00;2.40;;;;;;;17.28;36.30;97438.50;5088401;28;20055;-57
2021/03/30 08:08:54;;;;;;;3.33;2.10;;;;;;;17.28;36.63;97444.75;5087394;28;20068;-57
2021/03/30 08:14:05;;;;;;;4.25;2.03;;;;;;;17.29;36.42;97443.66;5088093;28;20101;-57
2021/03/30 08:16:31;;;;;;;6.00;2.50;;;;;;;17.31;36.29;97438.84;5088418;28;20059;-58
2021/03/30 08:18:57;;;;;;;4.68;2.70;;;;;;;17.30;36.28;97442.63;5069645;28;20051;-57
2021/03/30 08:21:22;;;;;;;4.18;2.42;;;;;;;17.30;36.35;97439.91;5070541;28;20072;-58
2021/03/30 08:23:55;;;;;;;4.63;2.60;;;;;;;17.32;36.18;97448.63;5058970;28;20080;-57
2021/03/30 08:26:21;;;;;;;4.43;1.98;;;;;;;17.34;36.05;97443.81;5068144;28;20510;-57
2021/03/30 08:28:55;;;;;;;3.03;1.90;;;;;;;17.34;36.25;97443.81;5067529;28;20056;-57
2021/03/30 08:31:36;;;;;;;5.03;2.58;;;;;;;17.35;36.06;97441.91;5066657;28;20056;-57
2021/03/30 08:34:04;;;;;;;4.10;2.30;;;;;;;17.34;36.31;97442.94;5066372;28;20055;-57
2021/03/30 08:36:43;;;;;;;4.68;2.03;;;;;;;17.36;36.16;97447.09;5067721;28;20044;-57
2021/03/30 08:39:18;;;;;;;2.67;1.88;;;;;;;17.36;36.19;97443.53;5067548;28;20547;-57
2021/03/30 08:41:47;;;;;;;3.17;2.33;;;;;;;17.37;36.10;97445.19;5067155;28;20103;-57
2021/03/30 08:44:14;;;;;;;4.07;1.92;;;;;;;17.37;35.96;97437.91;5067657;28;20061;-57
2021/03/30 08:46:40;;;;;;;3.85;2.45;;;;;;;17.39;36.04;97441.19;5066224;28;20055;-57
2021/03/30 08:49:26;;;;;;;3.95;2.53;;;;;;;17.37;35.99;97437.91;5066025;28;20060;-57
2021/03/30 08:51:52;;;;;;;;;;;;;;;17.39;36.21;97435.78;5067241;28;20055;-57
2021/03/30 08:54:19;;;;;;;5.47;2.00;;;;;;;17.40;36.23;97442.00;5082084;28;19923;-57
2021/03/30 08:56:45;;;;;;;3.58;2.20;;;;;;;17.40;35.92;97439.28;5087494;28;20180;-57
2021/03/30 08:59:11;;;;;;;2.50;2.03;;;;;;;17.40;35.86;97440.16;5086348;28;20055;-57
2021/03/30 09:01:37;;;;;;;2.83;1.98;;;;;;;17.42;35.97;97448.00;5069493;28;20048;-57
2021/03/30 09:04:02;;;;;;;2.90;1.70;;;;;;;17.43;36.04;97442.38;5087227;28;20087;-57
2021/03/30 09:06:36;;;;;;;3.83;2.13;;;;;;;17.45;35.84;97446.72;5087323;28;20052;-57
2021/03/30 09:09:03;;;;;;;4.13;2.00;;;;;;;17.44;36.04;97443.19;5086188;28;20669;-57
2021/03/30 09:11:30;;;;;;;2.97;2.20;;;;;;;17.47;35.92;97447.31;5087812;28;20052;-57
2021/03/30 09:14:04;;;;;;;4.03;1.95;;;;;;;17.45;35.85;97449.44;5086990;28;20087;-57
2021/03/30 09:16:29;;;;;;;3.13;1.77;;;;;;;17.48;36.03;97451.66;5086021;28;20093;-57
2021/03/30 09:19:18;;;;;;;3.40;1.75;;;;;;;17.46;35.93;97454.59;5087207;28;20576;-57
2021/03/30 09:21:49;;;;;;;3.50;2.00;;;;;;;17.44;35.87;97448.59;5086405;28;20043;-57
2021/03/30 09:26:53;;;;;;;2.03;1.80;;;;;;;17.48;35.84;97449.78;5086961;28;20040;-57
2021/03/30 09:29:19;;;;;;;2.13;1.85;;;;;;;17.47;35.86;97444.63;5086481;28;20094;-57
2021/03/30 09:31:47;;;;;;;2.70;1.88;;;;;;;17.48;36.10;97444.34;5068083;28;20155;-56
2021/03/30 09:34:13;;;;;;;2.92;1.95;;;;;;;17.48;35.75;97447.06;5061483;28;20053;-57
2021/03/30 09:36:47;;;;;;;3.10;2.00;;;;;;;17.48;35.89;97441.66;5066060;28;20056;-57
2021/03/30 09:39:20;;;;;;;2.35;2.00;;;;;;;17.50;35.92;97446.84;5065437;28;20526;-57
2021/03/30 09:41:48;;;;;;;2.85;2.30;;;;;;;17.52;36.03;97439.28;5059991;28;20049;-56
2021/03/30 09:44:14;;;;;;;2.55;1.50;;;;;;;17.52;35.92;97439.28;5076593;28;20040;-56
2021/03/30 09:46:39;;;;;;;4.25;2.22;;;;;;;17.58;35.89;97438.34;5060681;28;20044;-56
2021/03/30 09:49:08;;;;;;;2.95;2.50;;;;;;;17.59;36.10;97439.97;5047127;28;20056;-56
2021/03/30 09:51:36;;;;;;;11.50;6.15;;;;;;;17.60;36.29;97434.31;5066002;28;20531;-56
2021/03/30 09:54:01;;;;;;;314.85;76.85;;;;;;;17.66;37.28;97437.16;5049447;28;20133;-55
2021/03/30 09:56:29;;;;;;;196.80;48.40;;;;;;;17.68;37.62;97433.16;5064022;28;20079;-56
2021/03/30 09:58:55;;;;;;;183.90;47.28;;;;;;;17.69;38.10;97434.78;5066277;28;20040;-56
2021/03/30 10:01:21;;;;;;;155.00;42.13;;;;;;;17.70;38.21;97431.03;5087558;28;20117;-55
2021/03/30 10:03:47;;;;;;;143.75;38.00;;;;;;;17.73;38.43;97435.13;5084636;28;20054;-55
2021/03/30 10:06:17;;;;;;;132.45;36.78;;;;;;;17.74;38.89;97434.91;5083485;28;20131;-55
2021/03/30 10:08:43;;;;;;;132.13;35.33;;;;;;;17.60;38.66;97403.72;5086850;28;20445;-56
2021/03/30 10:11:09;;;;;;;100.85;30.88;;;;;;;17.78;38.88;97438.78;5067784;28;20048;-55
2021/03/30 10:13:36;;;;;;;102.22;29.67;;;;;;;17.79;38.54;97431.47;5084579;28;20074;-58
2021/03/30 10:16:03;;;;;;;102.30;29.70;;;;;;;17.82;38.58;97439.13;5083982;28;20510;-57
2021/03/30 10:18:29;;;;;;;78.45;25.48;;;;;;;17.83;38.49;97429.94;5065671;28;20044;-57
2021/03/30 10:20:59;;;;;;;79.82;25.10;;;;;;;17.85;38.32;97432.44;5065282;28;20113;-57
2021/03/30 10:23:32;;;;;;;84.07;25.42;;;;;;;17.86;38.27;97429.47;5065867;28;20040;-57
2021/03/30 10:26:08;;;;;;;70.60;20.02;;;;;;;17.87;37.85;97431.13;5065748;28;20118;-56
2021/03/30 10:28:34;;;;;;;63.90;19.80;;;;;;;17.88;37.81;97429.22;5063339;28;20052;-56
2021/03/30 10:31:23;;;;;;;49.03;17.75;;;;;;;17.89;37.70;97428.19;5063916;28;20075;-56
2021/03/30 10:33:50;;;;;;;46.80;15.85;;;;;;;17.91;37.68;97431.47;5065002;28;20649;-57
2021/03/30 10:36:16;;;;;;;50.17;18.35;;;;;;;17.92;37.79;97431.22;5064370;28;20106;-57
2021/03/30 10:39:09;;;;;;;48.65;18.38;;;;;;;17.92;37.58;97417.66;5063411;28;20350;-56
2021/03/30 10:41:36;;;;;;;43.20;15.13;;;;;;;17.95;37.52;97419.09;5063677;28;20052;-56
2021/03/30 10:44:02;;;;;;;38.75;13.45;;;;;;;17.96;37.29;97418.00;5064750;28;20075;-56
2021/03/30 10:46:28;;;;;;;27.52;11.55;;;;;;;17.98;37.59;97416.69;5064965;28;20123;-58
2021/03/30 10:49:01;;;;;;;29.33;10.75;;;;;;;18.01;37.54;97421.66;5064888;28;20051;-56
2021/03/30 10:51:27;;;;;;;29.35;10.52;;;;;;;18.03;37.46;97418.72;5063959;28;20056;-56
2021/03/30 10:53:53;;;;;;;25.30;8.80;;;;;;;18.04;37.34;97406.78;5063284;28;20059;-57
2021/03/30 10:56:19;;;;;;;16.55;7.25;;;;;;;18.06;37.49;97415.50;5064622;28;20080;-56
2021/03/30 10:58:44;;;;;;;21.33;7.82;;;;;;;18.08;37.08;97404.41;5065867;28;20131;-56
2021/03/30 11:01:10;;;;;;;14.68;5.93;;;;;;;18.12;37.61;97406.41;5068403;28;20143;-56
2021/03/30 11:03:35;;;;;;;14.82;5.50;;;;;;;18.15;37.43;97399.66;5067965;28;20080;-56
2021/03/30 11:06:01;;;;;;;11.23;4.90;;;;;;;18.15;37.82;97394.22;5068860;28;20533;-56
2021/03/30 11:08:27;;;;;;;11.60;4.85;;;;;;;18.18;37.86;97394.59;5067244;28;20054;-57
2021/03/30 11:10:52;;;;;;;11.95;4.85;;;;;;;18.21;37.78;97390.56;5068121;28;20132;-57
2021/03/30 11:13:18;;;;;;;10.35;4.53;;;;;;;18.22;38.23;97389.50;5069736;28;20039;-56
2021/03/30 11:15:43;;;;;;;9.95;4.88;;;;;;;18.22;37.75;97379.47;5068186;28;20072;-56
2021/03/30 11:18:09;;;;;;;9.80;4.30;;;;;;;18.25;37.85;97382.75;5067600;28;20472;-56
2021/03/30 11:20:35;;;;;;;11.82;5.03;;;;;;;18.25;37.83;97372.72;5068086;28;20056;-56
2021/03/30 11:23:02;;;;;;;11.27;4.43;;;;;;;18.28;37.59;97376.84;5067890;28;20139;-57
2021/03/30 11:25:28;;;;;;;9.57;4.63;;;;;;;18.29;37.81;97373.88;5068035;28;20455;-57
2021/03/30 11:28:00;;;;;;;12.32;5.00;;;;;;;18.31;37.52;97371.75;5068787;28;20127;-56
2021/03/30 11:30:34;;;;;;;10.85;4.70;;;;;;;18.33;37.69;97377.75;5071436;28;20050;-56
2021/03/30 11:33:19;;;;;;;7.45;3.92;;;;;;;18.35;37.64;97366.66;5068415;28;20131;-56
2021/03/30 11:35:49;;;;;;;10.20;4.20;;;;;;;18.37;37.37;97365.34;5068178;28;20578;-56
2021/03/30 11:38:15;;;;;;;8.10;4.25;;;;;;;18.39;37.14;97368.63;5068337;28;20056;-56
2021/03/30 11:40:40;;;;;;;8.13;4.47;;;;;;;18.41;37.34;97365.69;5067717;28;20205;-56
2021/03/30 11:43:06;;;;;;;6.78;4.07;;;;;;;18.44;37.24;97368.72;5068501;28;20125;-57